createdAt,value
2023-07-04T00:02:30.835Z,6.40
2023-07-04T00:06:16.889Z,6.10
2023-07-04T00:09:28.764Z,5.80
2023-07-04T00:12:34.656Z,6.30
2023-07-04T00:16:16.150Z,6.60
2023-07-04T00:20:09.381Z,6.40
2023-07-04T00:22:56.057Z,6.30
2023-07-04T00:26:24.492Z,6.50
2023-07-04T00:30:16.432Z,5.90
2023-07-04T00:33:48.052Z,6.70
2023-07-04T00:37:00.679Z,6.10
2023-07-04T00:40:33.845Z,6.00
2023-07-04T00:44:31.294Z,6.20
2023-07-04T00:47:58.066Z,6.50
2023-07-04T00:51:33.995Z,6.30
2023-07-04T00:55:31.715Z,5.40
2023-07-04T00:59:11.997Z,5.90
2023-07-04T01:02:48.252Z,6.60
2023-07-04T01:06:20.416Z,6.00
2023-07-04T01:09:58.662Z,6.10
2023-07-04T01:13:45.024Z,6.70
2023-07-04T01:17:21.635Z,6.70
2023-07-04T01:21:06.996Z,6.80
2023-07-04T01:24:38.995Z,6.20
2023-07-04T01:28:03.629Z,6.50
2023-07-04T01:31:11.107Z,6.70
2023-07-04T01:34:29.044Z,7.20
2023-07-04T01:38:13.049Z,6.50
2023-07-04T01:41:45.373Z,6.80
2023-07-04T01:45:22.042Z,6.70
2023-07-04T01:48:54.124Z,6.80
2023-07-04T01:52:18.411Z,6.50
2023-07-04T01:56:10.863Z,7.00
2023-07-04T01:59:06.397Z,8.50
2023-07-04T02:02:36.278Z,7.50
2023-07-04T02:06:13.825Z,6.40
2023-07-04T02:09:20.007Z,6.90
2023-07-04T02:12:56.551Z,7.60
2023-07-04T02:16:22.123Z,7.10
2023-07-04T02:20:00.035Z,6.10
2023-07-04T02:22:57.050Z,6.40
2023-07-04T02:26:41.125Z,6.80
2023-07-04T02:30:12.477Z,7.20
2023-07-04T02:33:14.259Z,7.40
2023-07-04T02:36:49.259Z,7.40
2023-07-04T02:40:20.738Z,7.40
2023-07-04T02:44:00.248Z,6.70
2023-07-04T02:47:27.222Z,7.30
2023-07-04T02:50:54.653Z,7.50
2023-07-04T02:54:24.469Z,8.70
2023-07-04T02:58:07.950Z,7.70
2023-07-04T03:01:31.012Z,7.50
2023-07-04T03:04:57.663Z,7.10
2023-07-04T03:08:15.557Z,7.90
2023-07-04T03:11:42.891Z,7.30
2023-07-04T03:15:33.634Z,6.70
2023-07-04T03:18:51.736Z,7.20
2023-07-04T03:22:38.646Z,7.80
2023-07-04T03:26:21.170Z,8.10
2023-07-04T03:30:13.802Z,7.70
2023-07-04T03:37:15.329Z,7.60
2023-07-04T03:40:39.069Z,7.10
2023-07-04T03:43:42.731Z,7.70
2023-07-04T03:47:45.681Z,6.60
2023-07-04T03:51:07.207Z,7.30
2023-07-04T03:54:44.482Z,7.20
2023-07-04T03:58:18.859Z,8.10
2023-07-04T04:01:46.504Z,8.10
2023-07-04T04:05:50.071Z,8.80
2023-07-04T04:09:19.375Z,7.90
2023-07-04T04:12:54.059Z,8.00
2023-07-04T04:15:59.016Z,7.40
2023-07-04T04:19:02.149Z,6.60
2023-07-04T04:21:45.502Z,5.90
2023-07-04T04:24:49.385Z,7.40
2023-07-04T04:28:08.055Z,5.60
2023-07-04T04:32:11.946Z,6.50
2023-07-04T04:35:47.362Z,5.80
2023-07-04T04:39:02.773Z,5.90
2023-07-04T04:42:40.817Z,5.80
2023-07-04T04:46:18.001Z,5.60
2023-07-04T04:49:55.376Z,6.20
2023-07-04T04:53:26.833Z,6.20
2023-07-04T04:56:53.449Z,6.60
2023-07-04T05:00:20.621Z,6.00
2023-07-04T05:03:28.876Z,5.50
2023-07-04T05:07:14.082Z,5.50
2023-07-04T05:10:38.482Z,5.40
2023-07-04T05:14:06.398Z,4.70
2023-07-04T05:17:02.900Z,5.20
2023-07-04T05:20:16.420Z,5.60
2023-07-04T05:23:34.386Z,5.20
2023-07-04T05:27:08.003Z,5.60
2023-07-04T05:30:26.037Z,4.80
2023-07-04T05:33:34.828Z,5.50
2023-07-04T05:36:48.660Z,5.20
2023-07-04T05:40:03.431Z,5.00
2023-07-04T05:43:18.432Z,4.10
2023-07-04T05:46:15.278Z,5.90
2023-07-04T05:49:49.000Z,5.30
2023-07-04T05:53:17.657Z,4.70
2023-07-04T05:57:11.796Z,5.30
2023-07-04T06:00:34.775Z,4.60
2023-07-04T06:03:41.097Z,4.80
2023-07-04T06:07:13.837Z,4.70
2023-07-04T06:10:46.567Z,4.30
2023-07-04T06:14:11.614Z,4.70
2023-07-04T06:17:31.108Z,4.50
2023-07-04T06:21:13.683Z,4.50
2023-07-04T06:24:26.887Z,5.00
2023-07-04T06:27:33.396Z,4.70
2023-07-04T06:30:33.048Z,5.00
2023-07-04T06:33:34.468Z,4.40
2023-07-04T06:36:40.576Z,4.50
2023-07-04T06:39:51.612Z,4.70
2023-07-04T06:42:53.918Z,3.90
2023-07-04T06:45:57.055Z,4.10
2023-07-04T06:48:54.711Z,4.20
2023-07-04T06:51:53.958Z,4.60
2023-07-04T06:54:57.181Z,5.30
2023-07-04T06:58:18.324Z,4.50
2023-07-04T07:01:28.432Z,4.50
2023-07-04T07:04:34.521Z,5.50
2023-07-04T07:07:33.677Z,3.80
2023-07-04T07:10:59.033Z,4.60
2023-07-04T07:13:48.015Z,4.30
2023-07-04T07:17:05.239Z,5.00
2023-07-04T07:20:32.454Z,4.50
2023-07-04T07:23:36.993Z,4.00
2023-07-04T07:26:52.435Z,4.70
2023-07-04T07:29:57.716Z,5.10
2023-07-04T07:33:01.272Z,4.90
2023-07-04T07:35:52.060Z,5.10
2023-07-04T07:38:54.011Z,4.40
2023-07-04T07:42:19.993Z,5.00
2023-07-04T07:45:45.294Z,5.40
2023-07-04T07:48:57.641Z,4.40
2023-07-04T07:51:50.955Z,5.50
2023-07-04T07:54:39.942Z,5.70
2023-07-04T07:57:36.388Z,5.20
2023-07-04T08:00:40.026Z,5.90
2023-07-04T08:03:56.281Z,5.70
2023-07-04T08:06:47.480Z,5.50
2023-07-04T08:09:46.393Z,5.90
2023-07-04T08:12:51.138Z,5.50
2023-07-04T08:16:09.466Z,5.30
2023-07-04T08:18:56.386Z,6.70
2023-07-04T08:22:02.500Z,6.50
2023-07-04T08:25:16.056Z,6.10
2023-07-04T08:28:08.088Z,7.00
2023-07-04T08:31:06.597Z,6.90
2023-07-04T08:34:00.476Z,6.00
2023-07-04T08:36:49.107Z,6.40
2023-07-04T08:39:49.724Z,7.20
2023-07-04T08:42:45.274Z,7.60
2023-07-04T08:45:58.944Z,6.50
2023-07-04T08:49:14.314Z,7.30
2023-07-04T08:52:03.857Z,6.80
2023-07-04T08:54:53.493Z,7.50
2023-07-04T08:57:58.983Z,7.20
2023-07-04T09:00:46.012Z,6.20
2023-07-04T09:03:57.793Z,6.00
2023-07-04T09:06:57.913Z,5.30
2023-07-04T09:10:53.943Z,6.50
2023-07-04T09:13:48.540Z,5.30
2023-07-04T09:16:45.154Z,5.40
2023-07-04T09:19:36.861Z,5.50
2023-07-04T09:23:00.827Z,5.50
2023-07-04T09:25:57.781Z,5.40
2023-07-04T09:28:45.336Z,4.80
2023-07-04T09:31:31.877Z,4.60
2023-07-04T09:34:50.933Z,5.70
2023-07-04T09:37:55.116Z,5.40
2023-07-04T09:40:54.262Z,4.50
2023-07-04T09:44:11.341Z,4.80
2023-07-04T09:47:04.420Z,4.00
2023-07-04T09:49:47.983Z,5.50
2023-07-04T09:53:11.017Z,5.30
2023-07-04T09:56:30.202Z,5.30
2023-07-04T09:59:29.217Z,5.60
2023-07-04T10:02:18.871Z,5.70
2023-07-04T10:05:03.786Z,5.50
2023-07-04T10:08:00.461Z,4.80
2023-07-04T10:10:59.219Z,4.80
2023-07-04T10:13:42.674Z,5.00
2023-07-04T10:16:26.037Z,5.00
2023-07-04T10:19:31.276Z,4.50
2023-07-04T10:22:23.298Z,4.70
2023-07-04T10:25:14.709Z,4.90
2023-07-04T10:28:12.260Z,5.00
2023-07-04T10:31:12.721Z,5.00
2023-07-04T10:34:08.963Z,5.40
2023-07-04T10:36:58.065Z,4.40
2023-07-04T10:39:41.529Z,5.20
2023-07-04T10:43:26.462Z,4.90
2023-07-04T10:49:13.215Z,5.60
2023-07-04T10:52:44.531Z,4.70
2023-07-04T10:55:51.805Z,4.30
2023-07-04T10:58:47.429Z,4.80
2023-07-04T11:01:52.997Z,4.80
2023-07-04T11:05:20.260Z,4.90
2023-07-04T11:08:51.314Z,5.00
2023-07-04T11:12:13.883Z,5.20
2023-07-04T11:15:10.178Z,5.10
2023-07-04T11:17:55.428Z,4.70
2023-07-04T11:21:09.989Z,4.90
2023-07-04T11:24:13.971Z,5.50
2023-07-04T11:27:03.634Z,5.20
2023-07-04T11:29:55.244Z,5.20
2023-07-04T11:32:43.977Z,6.30
2023-07-04T11:35:42.914Z,6.10
2023-07-04T11:38:37.662Z,5.20
2023-07-04T11:41:30.414Z,7.20
2023-07-04T11:44:23.043Z,7.00
2023-07-04T11:47:29.730Z,7.60
2023-07-04T11:50:19.477Z,6.20
2023-07-04T11:53:11.285Z,6.60
2023-07-04T11:56:34.849Z,6.50
2023-07-04T11:59:21.920Z,7.50
2023-07-04T12:02:35.158Z,7.10
2023-07-04T12:05:35.093Z,6.20
2023-07-04T12:08:46.673Z,6.80
2023-07-04T12:11:43.510Z,7.90
2023-07-04T12:14:27.023Z,7.90
2023-07-04T12:17:15.354Z,8.50
2023-07-04T12:20:04.867Z,7.40
2023-07-04T12:23:04.841Z,10.10
2023-07-04T12:25:56.594Z,8.50
2023-07-04T12:29:02.558Z,9.10
2023-07-04T12:32:17.146Z,7.70
2023-07-04T12:35:17.812Z,7.60
2023-07-04T12:38:08.823Z,7.30
2023-07-04T12:41:15.067Z,9.90
2023-07-04T12:47:21.318Z,10.70
2023-07-04T12:50:18.289Z,12.10
2023-07-04T12:53:06.923Z,10.90
2023-07-04T12:55:55.709Z,9.60
2023-07-04T12:58:59.415Z,11.60
2023-07-04T13:01:43.489Z,10.60
2023-07-04T13:04:36.935Z,11.60
2023-07-04T13:07:41.689Z,10.50
2023-07-04T13:10:29.906Z,9.20
2023-07-04T13:13:38.707Z,10.40
2023-07-04T13:16:49.844Z,10.90
2023-07-04T13:19:34.680Z,11.70
2023-07-04T13:22:21.974Z,9.90
2023-07-04T13:25:41.086Z,10.00
2023-07-04T13:34:39.424Z,12.60
2023-07-04T13:39:49.899Z,12.60
2023-07-04T13:40:39.146Z,11.40
2023-07-04T13:46:33.540Z,11.00
2023-07-04T13:49:19.200Z,11.70
2023-07-04T13:52:02.297Z,10.20
2023-07-04T13:54:48.185Z,10.50
2023-07-04T13:57:38.369Z,10.30
2023-07-04T14:00:32.130Z,10.90
2023-07-04T14:06:37.119Z,11.20
2023-07-04T14:09:21.815Z,11.10
2023-07-04T14:12:05.652Z,9.60
2023-07-04T14:19:57.820Z,10.60
2023-07-04T14:21:06.802Z,10.80
2023-07-04T14:23:50.216Z,11.50
2023-07-04T14:26:43.463Z,11.00
2023-07-04T14:29:35.587Z,11.30
2023-07-04T14:32:41.814Z,11.50
2023-07-04T14:35:28.038Z,11.40
2023-07-04T14:38:34.749Z,10.80
2023-07-04T14:42:30.041Z,11.00
2023-07-04T14:44:50.945Z,12.20
2023-07-04T14:47:57.349Z,10.90
2023-07-04T14:50:42.874Z,12.40
2023-07-04T14:53:26.334Z,11.20
2023-07-04T14:56:15.761Z,11.00
2023-07-04T14:59:02.171Z,12.10
2023-07-04T15:01:58.844Z,10.30
2023-07-04T15:05:02.186Z,10.50
2023-07-04T15:07:48.778Z,10.70
2023-07-04T15:10:38.590Z,10.60
2023-07-04T15:13:42.453Z,10.40
2023-07-04T15:16:37.648Z,12.50
2023-07-04T15:19:29.617Z,10.30
2023-07-04T15:25:44.769Z,10.10
2023-07-04T15:28:38.664Z,11.30
2023-07-04T15:31:40.328Z,11.10
2023-07-04T15:34:28.776Z,10.70
2023-07-04T15:37:25.660Z,10.30
2023-07-04T15:40:10.142Z,10.80
2023-07-04T15:42:54.588Z,10.40
2023-07-04T15:45:47.322Z,10.20
2023-07-04T15:48:35.481Z,9.90
2023-07-04T15:51:23.029Z,8.80
2023-07-04T15:54:12.583Z,8.10
2023-07-04T15:56:56.322Z,9.00
2023-07-04T16:00:01.036Z,9.30
2023-07-04T16:02:47.641Z,9.50
2023-07-04T16:05:33.081Z,8.40
2023-07-04T16:08:16.845Z,9.00
2023-07-04T16:11:05.655Z,9.10
2023-07-04T16:13:48.797Z,8.70
2023-07-04T16:16:40.829Z,8.90
2023-07-04T16:22:08.116Z,8.20
2023-07-04T16:25:02.891Z,8.50
2023-07-04T16:27:49.109Z,7.90
2023-07-04T16:30:32.206Z,8.80
2023-07-04T16:33:15.978Z,8.50
2023-07-04T16:36:04.711Z,8.70
2023-07-04T16:38:55.011Z,9.80
2023-07-04T16:41:38.462Z,8.00
2023-07-04T16:44:38.914Z,8.00
2023-07-04T16:47:27.714Z,8.50
2023-07-04T16:50:29.284Z,7.70
2023-07-04T16:53:14.437Z,8.50
2023-07-04T16:55:59.697Z,9.10
2023-07-04T16:58:46.767Z,8.60
2023-07-04T17:01:35.145Z,8.10
2023-07-04T17:04:20.878Z,8.20
2023-07-04T17:07:10.192Z,7.70
2023-07-04T17:09:56.618Z,7.90
2023-07-04T17:12:40.022Z,8.40
2023-07-04T17:15:33.644Z,7.70
2023-07-04T17:18:22.239Z,8.80
2023-07-04T17:21:09.441Z,7.70
2023-07-04T17:23:57.082Z,8.30
2023-07-04T17:26:52.953Z,8.20
2023-07-04T17:29:45.531Z,8.30
2023-07-04T17:32:37.849Z,8.10
2023-07-04T17:35:30.030Z,6.90
2023-07-04T17:41:13.625Z,6.00
2023-07-04T17:43:58.300Z,6.20
2023-07-04T17:46:46.128Z,6.70
2023-07-04T17:50:12.343Z,5.90
2023-07-04T17:53:04.538Z,7.70
2023-07-04T17:56:07.968Z,5.40
2023-07-04T17:59:11.731Z,5.80
2023-07-04T18:01:57.474Z,5.90
2023-07-04T18:04:43.811Z,6.60
2023-07-04T18:07:51.379Z,5.80
2023-07-04T18:10:55.081Z,6.40
2023-07-04T18:13:41.414Z,6.70
2023-07-04T18:16:28.281Z,6.00
2023-07-04T18:19:21.634Z,5.80
2023-07-04T18:22:38.876Z,4.90
2023-07-04T18:25:58.241Z,4.80
2023-07-04T18:28:55.233Z,5.40
2023-07-04T18:31:58.705Z,5.00
2023-07-04T18:35:02.027Z,4.80
2023-07-04T18:37:54.341Z,4.60
2023-07-04T18:40:49.088Z,4.60
2023-07-04T18:43:54.705Z,5.20
2023-07-04T18:46:41.580Z,4.80
2023-07-04T18:49:53.757Z,4.70
2023-07-04T18:53:06.925Z,4.50
2023-07-04T18:55:58.526Z,5.00
2023-07-04T18:59:12.509Z,5.00
2023-07-04T19:02:39.139Z,5.00
2023-07-04T19:05:34.160Z,4.90
2023-07-04T19:08:28.808Z,5.20
2023-07-04T19:11:39.608Z,5.90
2023-07-04T19:15:23.533Z,5.90
2023-07-04T19:18:37.193Z,5.60
2023-07-04T19:22:21.437Z,5.10
2023-07-04T19:25:27.418Z,5.70
2023-07-04T19:29:11.117Z,5.90
2023-07-04T19:32:22.912Z,5.10
2023-07-04T19:36:01.819Z,6.50
2023-07-04T19:39:35.677Z,6.90
2023-07-04T19:42:50.194Z,6.10
2023-07-04T19:46:09.764Z,6.20
2023-07-04T19:49:21.679Z,6.00
2023-07-04T19:52:30.776Z,6.40
2023-07-04T19:55:38.372Z,6.30
2023-07-04T19:59:14.174Z,5.80
2023-07-04T20:02:37.630Z,6.10
2023-07-04T20:06:04.119Z,6.10
2023-07-04T20:09:26.605Z,5.30
2023-07-04T20:12:51.633Z,6.00
2023-07-04T20:16:25.441Z,6.20
2023-07-04T20:19:43.035Z,6.70
2023-07-04T20:23:05.414Z,6.00
2023-07-04T20:26:19.653Z,6.80
2023-07-04T20:30:03.532Z,6.60
2023-07-04T20:33:02.077Z,6.20
2023-07-04T20:36:28.044Z,6.70
2023-07-04T20:40:02.699Z,7.00
2023-07-04T20:43:31.442Z,6.50
2023-07-04T20:46:57.264Z,7.80
2023-07-04T20:50:46.820Z,7.70
2023-07-04T20:54:00.595Z,7.60
2023-07-04T20:57:22.416Z,7.60
2023-07-04T21:01:06.406Z,7.90
2023-07-04T21:04:30.190Z,9.30
2023-07-04T21:08:16.816Z,9.10
2023-07-04T21:11:32.280Z,7.50
2023-07-04T21:15:27.164Z,7.40
2023-07-04T21:22:01.332Z,6.90
2023-07-04T21:25:25.072Z,6.80
2023-07-04T21:29:19.524Z,6.50
2023-07-04T21:36:24.787Z,8.40
2023-07-04T21:40:21.222Z,6.70
2023-07-04T21:44:04.963Z,6.70
2023-07-04T21:47:59.776Z,8.10
2023-07-04T21:51:36.729Z,5.60
2023-07-04T21:55:39.415Z,7.30
2023-07-04T21:59:43.259Z,7.40
2023-07-04T22:03:36.952Z,6.60
2023-07-04T22:07:34.785Z,6.50
2023-07-04T22:15:04.653Z,6.90
2023-07-04T22:19:09.334Z,6.80
2023-07-04T22:23:04.257Z,6.80
2023-07-04T22:30:34.145Z,7.90
2023-07-04T22:34:10.179Z,8.10
2023-07-04T22:38:14.085Z,7.30
2023-07-04T22:42:07.734Z,8.80
2023-07-04T22:46:06.146Z,7.40
2023-07-04T22:50:10.134Z,7.30
2023-07-04T22:54:04.943Z,7.30
2023-07-04T22:57:58.434Z,6.80
2023-07-04T23:02:01.544Z,7.70
2023-07-04T23:05:40.191Z,11.40
2023-07-04T23:09:44.100Z,9.80
2023-07-04T23:13:40.966Z,7.80
2023-07-04T23:17:44.987Z,7.40
2023-07-04T23:25:32.216Z,6.90
2023-07-04T23:29:36.079Z,8.00
2023-07-04T23:33:39.993Z,8.40
2023-07-04T23:37:43.860Z,7.50
2023-07-04T23:44:56.999Z,8.30
2023-07-04T23:48:43.168Z,6.90
2023-07-04T23:52:15.769Z,8.00
2023-07-04T23:56:19.665Z,8.70
